Time;durP1;ratioP1;P1;durP2;ratioP2;P2;SDS_P1;SDS_P2;PMS_P1;PMS_P2;Temp;Humidity;BMP_temperature;BMP_pressure;BME280_temperature;BME280_humidity;BME280_pressure;Samples;Min_cycle;Max_cycle;Signal;HPM_P1;HPM_P2
2020/12/12 00:00:12;;;;;;;13.50;3.58;;;15.10;53.60;;;;;;1037632;28;20084;-73
2020/12/12 00:00:43;;;;;;;15.20;3.70;;;15.00;53.70;;;;;;1039054;28;20018;-74
2020/12/12 00:01:15;;;;;;;11.68;3.47;;;15.00;53.90;;;;;;1040368;28;20018;-76
2020/12/12 00:01:50;;;;;;;15.52;3.78;;;15.00;53.90;;;;;;1040575;28;20018;-76
2020/12/12 00:02:22;;;;;;;13.45;3.50;;;15.00;53.50;;;;;;1035791;28;20014;-74
2020/12/12 00:02:53;;;;;;;12.60;4.20;;;15.00;53.20;;;;;;1032544;28;20018;-73
2020/12/12 00:03:25;;;;;;;16.10;3.85;;;15.00;53.40;;;;;;1034867;28;20022;-75
2020/12/12 00:03:57;;;;;;;12.05;3.65;;;15.00;53.50;;;;;;1035609;28;20084;-74
2020/12/12 00:04:29;;;;;;;10.98;3.40;;;15.00;53.40;;;;;;1033463;28;20014;-73
2020/12/12 00:05:01;;;;;;;13.13;3.45;;;15.00;53.40;;;;;;1036548;28;20006;-75
2020/12/12 00:05:32;;;;;;;13.70;3.67;;;15.00;53.70;;;;;;1035154;28;20333;-76
2020/12/12 00:06:03;;;;;;;13.55;3.88;;;15.00;54.00;;;;;;1039151;28;20032;-74
2020/12/12 00:06:35;;;;;;;14.30;4.00;;;15.10;54.20;;;;;;1040336;28;20150;-75
2020/12/12 00:07:06;;;;;;;12.98;3.92;;;15.10;54.30;;;;;;1036710;28;20026;-74
2020/12/12 00:07:38;;;;;;;11.57;4.00;;;15.10;54.40;;;;;;1038635;28;20013;-73
2020/12/12 00:08:09;;;;;;;16.05;4.32;;;15.10;54.10;;;;;;1039259;28;20010;-74
2020/12/12 00:08:40;;;;;;;11.95;3.88;;;15.10;53.70;;;;;;1039860;28;20021;-73
2020/12/12 00:09:12;;;;;;;14.98;4.13;;;15.10;53.60;;;;;;1042563;28;20044;-74
2020/12/12 00:09:43;;;;;;;15.13;3.92;;;15.10;53.80;;;;;;1043300;28;20009;-74
2020/12/12 00:10:15;;;;;;;9.77;3.20;;;15.10;53.70;;;;;;1040103;28;20028;-74
2020/12/12 00:10:48;;;;;;;17.00;6.32;;;15.10;53.90;;;;;;1037024;28;20037;-73
2020/12/12 00:11:21;;;;;;;16.63;6.18;;;15.10;54.00;;;;;;1036742;28;20018;-73
2020/12/12 00:11:52;;;;;;;17.33;5.18;;;15.10;53.80;;;;;;1039088;28;20104;-73
2020/12/12 00:12:23;;;;;;;13.30;4.78;;;15.10;53.50;;;;;;1038411;28;20359;-73
2020/12/12 00:12:55;;;;;;;13.60;4.25;;;15.00;53.50;;;;;;1039144;28;20017;-73
2020/12/12 00:13:26;;;;;;;15.23;3.92;;;15.10;53.40;;;;;;1038072;28;20052;-73
2020/12/12 00:13:57;;;;;;;11.98;3.67;;;15.10;53.70;;;;;;1039827;28;20075;-74
2020/12/12 00:14:29;;;;;;;12.85;4.07;;;15.00;53.80;;;;;;1038915;28;20108;-74
2020/12/12 00:15:00;;;;;;;15.00;3.55;;;15.00;53.80;;;;;;1034656;28;20032;-73
2020/12/12 00:15:32;;;;;;;13.50;3.72;;;15.00;53.70;;;;;;1040191;28;20049;-73
2020/12/12 00:16:06;;;;;;;12.85;3.60;;;15.00;53.70;;;;;;1035877;28;20091;-73
2020/12/12 00:16:37;;;;;;;13.65;3.85;;;15.00;53.60;;;;;;1036214;28;20044;-74
2020/12/12 00:17:08;;;;;;;13.95;3.78;;;15.00;53.50;;;;;;1038051;28;20029;-74
2020/12/12 00:17:40;;;;;;;12.80;3.63;;;15.00;53.70;;;;;;1033621;28;20026;-74
2020/12/12 00:18:11;;;;;;;11.68;3.20;;;15.00;53.80;;;;;;1039201;28;20074;-74
2020/12/12 00:18:43;;;;;;;15.18;4.10;;;15.10;54.10;;;;;;1039540;28;20017;-75
2020/12/12 00:19:15;;;;;;;11.60;3.58;;;15.10;54.30;;;;;;1040395;28;20333;-75
2020/12/12 00:19:47;;;;;;;10.45;3.67;;;15.10;54.40;;;;;;1040531;28;20339;-75
2020/12/12 00:20:18;;;;;;;14.05;3.80;;;15.10;54.10;;;;;;1039860;28;20532;-75
2020/12/12 00:20:50;;;;;;;15.65;4.40;;;15.10;53.70;;;;;;1036282;28;20372;-75
2020/12/12 00:21:24;;;;;;;12.43;3.67;;;15.00;53.50;;;;;;1036380;28;20017;-75
2020/12/12 00:21:55;;;;;;;17.55;4.03;;;15.00;53.50;;;;;;1035675;28;20018;-76
2020/12/12 00:22:26;;;;;;;10.73;3.50;;;15.00;53.40;;;;;;1038499;28;20399;-75
2020/12/12 00:22:58;;;;;;;13.10;3.90;;;14.90;53.60;;;;;;1038060;28;20108;-75
2020/12/12 00:23:29;;;;;;;12.90;3.75;;;14.90;53.90;;;;;;1034879;28;20061;-75
2020/12/12 00:24:01;;;;;;;13.52;3.78;;;14.90;53.90;;;;;;1035792;28;20028;-75
2020/12/12 00:24:32;;;;;;;13.35;3.65;;;14.90;53.90;;;;;;1029496;28;20108;-76
2020/12/12 00:25:04;;;;;;;10.50;3.53;;;14.90;53.60;;;;;;1033545;28;20018;-76
2020/12/12 00:25:35;;;;;;;12.00;3.50;;;14.90;53.40;;;;;;1040105;28;20017;-76
2020/12/12 00:26:07;;;;;;;15.90;4.15;;;14.90;53.50;;;;;;1040043;28;20059;-76
2020/12/12 00:26:38;;;;;;;11.98;3.83;;;14.90;53.60;;;;;;1040201;28;20344;-75
2020/12/12 00:27:10;;;;;;;11.65;3.40;;;14.90;53.60;;;;;;1040440;28;20023;-75
2020/12/12 00:27:42;;;;;;;10.80;3.40;;;14.90;53.60;;;;;;1040539;28;20347;-75
2020/12/12 00:28:14;;;;;;;14.82;3.72;;;14.80;53.50;;;;;;1040308;28;20092;-75
2020/12/12 00:28:45;;;;;;;14.35;4.20;;;14.90;53.80;;;;;;1040771;28;20010;-75
2020/12/12 00:29:17;;;;;;;11.73;3.22;;;14.80;53.90;;;;;;1040663;28;20399;-75
2020/12/12 00:29:49;;;;;;;13.55;3.78;;;14.90;54.00;;;;;;1040407;28;20025;-75
2020/12/12 00:30:20;;;;;;;12.75;3.53;;;14.90;54.00;;;;;;1039444;28;20020;-75
2020/12/12 00:30:51;;;;;;;15.30;4.15;;;14.90;54.20;;;;;;1036463;28;20017;-75
2020/12/12 00:31:23;;;;;;;12.95;3.40;;;14.90;54.20;;;;;;1036420;28;20009;-75
2020/12/12 00:31:58;;;;;;;10.98;3.60;;;14.90;54.40;;;;;;1036629;28;20434;-75
2020/12/12 00:32:30;;;;;;;14.10;4.45;;;14.90;54.20;;;;;;1036383;28;20025;-76
2020/12/12 00:33:01;;;;;;;11.23;3.13;;;14.90;53.60;;;;;;1036485;28;20010;-75
2020/12/12 00:33:33;;;;;;;11.00;3.38;;;14.90;53.70;;;;;;1036392;28;20056;-76
2020/12/12 00:34:04;;;;;;;15.52;3.90;;;14.90;53.70;;;;;;1036092;28;20041;-74
2020/12/12 00:34:35;;;;;;;9.32;3.30;;;14.90;53.60;;;;;;1037773;28;20060;-75
2020/12/12 00:35:07;;;;;;;14.98;3.92;;;14.90;53.70;;;;;;1036854;28;20110;-75
2020/12/12 00:35:39;;;;;;;12.15;3.40;;;14.90;53.40;;;;;;1038158;28;20018;-74
2020/12/12 00:36:10;;;;;;;12.35;4.03;;;14.90;53.50;;;;;;1038584;28;20047;-75
2020/12/12 00:36:42;;;;;;;14.00;3.80;;;14.90;53.70;;;;;;1037633;28;20018;-74
2020/12/12 00:37:13;;;;;;;12.85;3.53;;;14.90;53.80;;;;;;1037077;28;20113;-74
2020/12/12 00:37:45;;;;;;;11.32;3.63;;;14.90;53.70;;;;;;1036157;28;20116;-75
2020/12/12 00:38:16;;;;;;;13.25;3.75;;;15.00;53.80;;;;;;1035061;28;20359;-75
2020/12/12 00:38:47;;;;;;;11.55;3.70;;;15.00;53.80;;;;;;1032661;28;20093;-75
2020/12/12 00:39:19;;;;;;;11.48;3.50;;;15.00;53.70;;;;;;1032661;28;20022;-75
2020/12/12 00:39:51;;;;;;;13.30;3.90;;;15.00;53.60;;;;;;1036304;28;20081;-74
2020/12/12 00:40:22;;;;;;;18.27;4.20;;;15.00;53.70;;;;;;1038306;28;20447;-74
2020/12/12 00:40:58;;;;;;;10.80;3.80;;;15.00;53.80;;;;;;1040560;28;20060;-75
2020/12/12 00:41:37;;;;;;;10.82;3.65;;;15.10;54.10;;;;;;1038151;28;20022;-74
2020/12/12 00:42:09;;;;;;;12.10;4.45;;;15.10;54.10;;;;;;1036130;28;20065;-74
2020/12/12 00:42:40;;;;;;;11.73;4.05;;;15.10;54.10;;;;;;1036291;28;20036;-75
2020/12/12 00:43:12;;;;;;;12.55;4.30;;;15.10;53.90;;;;;;1036380;28;20070;-74
2020/12/12 00:43:43;;;;;;;10.68;3.80;;;15.10;53.70;;;;;;1036369;28;20018;-75
2020/12/12 00:44:15;;;;;;;12.18;3.72;;;15.10;53.40;;;;;;1038468;28;20339;-75
2020/12/12 00:44:47;;;;;;;13.10;3.70;;;15.10;53.40;;;;;;1036962;28;20026;-75
2020/12/12 00:45:18;;;;;;;12.15;3.90;;;15.10;53.90;;;;;;1040000;28;20052;-75
2020/12/12 00:45:50;;;;;;;11.40;3.72;;;15.10;54.00;;;;;;1038580;28;20364;-74
2020/12/12 00:46:21;;;;;;;11.70;3.85;;;15.20;54.10;;;;;;1036349;28;20022;-75
2020/12/12 00:46:53;;;;;;;12.15;3.80;;;15.20;54.40;;;;;;1038932;28;20454;-74
2020/12/12 00:47:24;;;;;;;14.65;4.30;;;15.20;54.50;;;;;;1040513;28;20526;-74
2020/12/12 00:47:56;;;;;;;15.65;4.28;;;15.20;54.60;;;;;;1036504;28;20026;-75
2020/12/12 00:48:27;;;;;;;12.27;3.90;;;15.20;54.70;;;;;;1037437;28;20337;-76
2020/12/12 00:48:59;;;;;;;14.93;4.30;;;15.20;54.80;;;;;;1035879;28;20049;-74
2020/12/12 00:49:30;;;;;;;12.07;4.78;;;15.20;54.90;;;;;;1033674;28;20093;-74
2020/12/12 00:50:02;;;;;;;13.57;4.22;;;15.20;54.80;;;;;;1040598;28;20436;-74
2020/12/12 00:50:33;;;;;;;16.35;4.80;;;15.20;54.80;;;;;;1039747;28;20013;-74
2020/12/12 00:51:04;;;;;;;14.50;4.38;;;15.20;54.80;;;;;;1040340;28;20117;-73
2020/12/12 00:51:36;;;;;;;15.23;4.63;;;15.20;54.70;;;;;;1040396;28;20002;-73
2020/12/12 00:52:07;;;;;;;12.32;4.80;;;15.30;54.70;;;;;;1036659;28;20407;-75
2020/12/12 00:52:39;;;;;;;17.80;5.10;;;15.20;54.70;;;;;;1041006;28;20340;-75
2020/12/12 00:53:10;;;;;;;15.95;4.40;;;15.30;54.60;;;;;;1036904;28;20105;-75
2020/12/12 00:53:41;;;;;;;14.45;4.32;;;15.20;54.20;;;;;;1032881;28;20353;-75
2020/12/12 00:54:13;;;;;;;18.27;4.43;;;15.30;54.20;;;;;;1029190;28;20011;-75
2020/12/12 00:54:44;;;;;;;13.60;4.05;;;15.20;54.00;;;;;;1030189;28;20333;-75
2020/12/12 00:55:16;;;;;;;15.02;3.95;;;15.20;53.90;;;;;;1029758;28;20011;-75
2020/12/12 00:55:47;;;;;;;16.15;3.90;;;15.30;54.10;;;;;;1033451;28;20025;-75
2020/12/12 00:56:19;;;;;;;15.68;3.97;;;15.30;53.90;;;;;;1036984;28;20122;-74
2020/12/12 00:56:50;;;;;;;14.07;4.15;;;15.30;54.00;;;;;;1037547;28;20073;-73
2020/12/12 00:57:22;;;;;;;13.40;3.70;;;15.20;54.00;;;;;;1041183;28;20006;-73
2020/12/12 00:57:53;;;;;;;16.92;3.65;;;15.20;53.80;;;;;;1041514;28;20067;-73
2020/12/12 00:58:25;;;;;;;11.75;3.72;;;15.20;53.90;;;;;;1040906;28;20542;-73
2020/12/12 00:58:56;;;;;;;14.23;3.88;;;15.20;54.10;;;;;;1041502;28;20013;-73
2020/12/12 00:59:27;;;;;;;11.48;3.50;;;15.20;54.00;;;;;;1041340;28;20068;-76
2020/12/12 00:59:59;;;;;;;11.68;3.80;;;15.30;53.70;;;;;;1040065;28;20085;-75
2020/12/12 01:00:33;;;;;;;13.35;3.78;;;15.20;53.70;;;;;;1038975;28;20427;-75
2020/12/12 01:01:04;;;;;;;11.63;3.67;;;15.20;53.80;;;;;;1039419;28;20424;-76
2020/12/12 01:01:35;;;;;;;15.15;3.80;;;15.30;54.00;;;;;;1038979;28;20021;-76
2020/12/12 01:02:07;;;;;;;14.77;4.07;;;15.30;53.90;;;;;;1039016;28;20022;-76
2020/12/12 01:02:38;;;;;;;13.98;3.85;;;15.30;53.90;;;;;;1041253;28;20013;-76
2020/12/12 01:03:10;;;;;;;13.88;4.30;;;15.30;54.00;;;;;;1040800;28;20159;-76
2020/12/12 01:03:42;;;;;;;14.00;4.38;;;15.30;53.80;;;;;;1037099;28;20331;-75
2020/12/12 01:04:14;;;;;;;15.02;4.10;;;15.30;53.80;;;;;;1035072;28;20074;-75
2020/12/12 01:04:45;;;;;;;22.50;4.10;;;15.30;54.00;;;;;;1032803;28;20118;-74
2020/12/12 01:05:17;;;;;;;11.25;3.90;;;15.30;53.90;;;;;;1032806;28;20018;-74
2020/12/12 01:05:49;;;;;;;13.38;3.63;;;15.30;53.90;;;;;;1034356;28;20014;-74
2020/12/12 01:06:20;;;;;;;14.20;3.95;;;15.30;53.90;;;;;;1036307;28;20033;-75
2020/12/12 01:06:51;;;;;;;11.55;3.72;;;15.30;53.80;;;;;;1033394;28;20045;-75
2020/12/12 01:07:23;;;;;;;14.73;4.00;;;15.20;53.70;;;;;;1039579;28;20018;-76
2020/12/12 01:07:54;;;;;;;12.40;3.90;;;15.20;53.70;;;;;;1037293;28;20315;-76
2020/12/12 01:08:26;;;;;;;13.88;3.97;;;15.20;53.80;;;;;;1036833;28;20073;-75
2020/12/12 01:08:57;;;;;;;11.70;3.65;;;15.20;53.70;;;;;;1036541;28;20054;-75
2020/12/12 01:09:29;;;;;;;14.43;3.90;;;15.20;53.50;;;;;;1037336;28;20053;-74
2020/12/12 01:10:00;;;;;;;14.70;4.00;;;15.20;53.60;;;;;;1036395;28;20018;-76
2020/12/12 01:10:31;;;;;;;13.65;3.85;;;15.20;53.50;;;;;;1038719;28;20029;-75
2020/12/12 01:11:04;;;;;;;13.75;3.75;;;15.20;53.60;;;;;;1037006;28;20030;-75
2020/12/12 01:11:35;;;;;;;14.18;3.70;;;15.20;53.50;;;;;;1039140;28;20026;-75
2020/12/12 01:12:06;;;;;;;13.98;4.28;;;15.20;53.50;;;;;;1040856;28;20022;-75
2020/12/12 01:12:38;;;;;;;12.15;3.75;;;15.20;53.60;;;;;;1039056;28;20044;-75
2020/12/12 01:13:09;;;;;;;12.75;3.90;;;15.20;53.60;;;;;;1038825;28;20079;-75
2020/12/12 01:13:41;;;;;;;12.02;3.88;;;15.20;53.40;;;;;;1041159;28;20021;-75
2020/12/12 01:14:13;;;;;;;13.98;4.00;;;15.20;53.50;;;;;;1044562;28;20063;-75
2020/12/12 01:14:45;;;;;;;11.93;3.58;;;15.20;53.90;;;;;;1040914;28;20029;-75
2020/12/12 01:15:16;;;;;;;12.98;3.90;;;15.20;54.10;;;;;;1040982;28;20104;-75
2020/12/12 01:15:48;;;;;;;13.88;3.97;;;15.20;53.90;;;;;;1040431;28;20025;-74
2020/12/12 01:16:19;;;;;;;10.45;3.88;;;15.20;53.90;;;;;;1040111;28;20459;-75
2020/12/12 01:16:50;;;;;;;16.05;3.97;;;15.20;53.90;;;;;;1038286;28;20018;-74
2020/12/12 01:17:22;;;;;;;13.80;3.97;;;15.20;54.00;;;;;;1044976;28;20032;-75
2020/12/12 01:17:53;;;;;;;16.15;4.53;;;15.20;54.00;;;;;;1040402;28;20088;-75
2020/12/12 01:18:25;;;;;;;18.63;4.30;;;15.20;54.20;;;;;;1040966;28;20029;-74
2020/12/12 01:18:56;;;;;;;13.60;4.57;;;15.20;53.70;;;;;;1040762;28;20080;-74
2020/12/12 01:19:27;;;;;;;16.42;4.80;;;15.20;53.40;;;;;;1040810;28;20060;-74
2020/12/12 01:19:59;;;;;;;13.32;4.68;;;15.10;53.30;;;;;;1040954;28;20031;-74
2020/12/12 01:20:30;;;;;;;11.48;4.10;;;15.10;53.50;;;;;;1037140;28;20044;-74
2020/12/12 01:21:02;;;;;;;10.45;4.05;;;15.10;53.80;;;;;;1040911;28;20037;-74
2020/12/12 01:21:34;;;;;;;10.60;4.30;;;15.20;54.10;;;;;;1041039;28;20033;-74
2020/12/12 01:22:05;;;;;;;14.82;4.35;;;15.20;53.80;;;;;;1041026;28;20021;-74
2020/12/12 01:22:37;;;;;;;12.13;4.00;;;15.20;53.80;;;;;;1040926;28;20030;-74
2020/12/12 01:23:08;;;;;;;14.38;4.65;;;15.20;53.70;;;;;;1038771;28;20057;-75
2020/12/12 01:23:39;;;;;;;14.32;4.88;;;15.10;53.40;;;;;;1032754;28;20038;-74
2020/12/12 01:24:15;;;;;;;17.63;4.60;;;15.10;53.20;;;;;;1032798;28;20030;-75
2020/12/12 01:24:47;;;;;;;14.77;4.60;;;15.10;53.50;;;;;;1035706;28;20113;-75
2020/12/12 01:25:18;;;;;;;13.18;4.20;;;15.10;53.80;;;;;;1033969;28;20041;-75
2020/12/12 01:25:50;;;;;;;13.93;4.30;;;15.10;53.90;;;;;;1036790;28;20120;-75
2020/12/12 01:26:21;;;;;;;16.35;4.82;;;15.10;53.80;;;;;;1039762;28;20030;-75
2020/12/12 01:26:52;;;;;;;10.00;3.95;;;15.10;53.50;;;;;;1040922;28;20049;-75
2020/12/12 01:27:24;;;;;;;12.50;4.22;;;15.10;53.70;;;;;;1038740;28;20038;-75
2020/12/12 01:27:55;;;;;;;10.75;4.03;;;15.10;54.00;;;;;;1040280;28;20017;-75
2020/12/12 01:28:27;;;;;;;13.63;4.20;;;15.10;53.80;;;;;;1039780;28;20550;-74
2020/12/12 01:28:59;;;;;;;12.93;4.10;;;15.20;53.80;;;;;;1037411;28;20029;-74
2020/12/12 01:29:30;;;;;;;9.93;3.90;;;15.20;53.90;;;;;;1038264;28;20026;-74
2020/12/12 01:30:02;;;;;;;10.98;3.67;;;15.20;54.60;;;;;;1038556;28;20104;-74
2020/12/12 01:30:34;;;;;;;15.23;3.97;;;15.20;54.00;;;;;;1034631;28;20042;-74
2020/12/12 01:31:06;;;;;;;11.15;4.32;;;15.20;54.10;;;;;;1034777;28;20025;-74
2020/12/12 01:31:37;;;;;;;12.32;4.50;;;15.10;53.40;;;;;;1032758;28;20049;-75
2020/12/12 01:32:09;;;;;;;13.57;4.43;;;15.00;53.20;;;;;;1033126;28;20094;-75
2020/12/12 01:32:40;;;;;;;14.27;4.65;;;15.00;53.20;;;;;;1036996;28;20049;-75
2020/12/12 01:33:11;;;;;;;14.57;4.60;;;15.10;53.50;;;;;;1041381;28;20463;-74
2020/12/12 01:33:43;;;;;;;14.65;4.47;;;15.10;53.70;;;;;;1044724;28;20021;-75
2020/12/12 01:34:16;;;;;;;11.30;4.50;;;15.10;53.70;;;;;;1038258;28;20530;-74
2020/12/12 01:34:47;;;;;;;11.48;4.30;;;15.10;53.70;;;;;;1039302;28;20013;-74
2020/12/12 01:35:19;;;;;;;13.35;4.30;;;15.10;53.70;;;;;;1039863;28;20030;-74
2020/12/12 01:35:50;;;;;;;11.40;4.53;;;15.10;53.70;;;;;;1037087;28;20084;-76
2020/12/12 01:36:21;;;;;;;13.60;4.35;;;15.10;53.90;;;;;;1040501;28;20098;-74
2020/12/12 01:36:53;;;;;;;13.02;4.40;;;15.10;54.20;;;;;;1040504;28;20052;-73
2020/12/12 01:37:24;;;;;;;12.45;4.20;;;15.00;53.40;;;;;;1035312;28;20030;-74
2020/12/12 01:37:56;;;;;;;13.70;4.43;;;15.00;53.10;;;;;;1039805;28;20025;-73
2020/12/12 01:38:28;;;;;;;12.38;4.68;;;15.00;53.10;;;;;;1037782;28;20026;-73
2020/12/12 01:38:59;;;;;;;13.57;4.60;;;15.00;53.10;;;;;;1033255;28;20133;-74
2020/12/12 01:39:30;;;;;;;14.20;4.60;;;15.00;53.10;;;;;;1037205;28;20033;-73
2020/12/12 01:40:03;;;;;;;13.85;4.63;;;14.90;53.00;;;;;;1039677;28;20053;-75
2020/12/12 01:40:34;;;;;;;13.00;4.53;;;14.90;53.10;;;;;;1040014;28;20029;-75
2020/12/12 01:41:06;;;;;;;13.82;4.35;;;14.90;53.20;;;;;;1035263;28;20029;-75
2020/12/12 01:41:37;;;;;;;11.73;4.18;;;14.90;52.90;;;;;;1035119;28;20017;-76
2020/12/12 01:42:08;;;;;;;18.17;4.90;;;14.80;53.50;;;;;;1033394;28;20312;-76
2020/12/12 01:42:40;;;;;;;13.90;4.32;;;14.80;53.00;;;;;;1035539;28;20022;-75
2020/12/12 01:43:12;;;;;;;13.18;4.22;;;14.80;52.90;;;;;;1040864;28;20036;-75
2020/12/12 01:43:50;;;;;;;11.98;4.43;;;14.80;52.60;;;;;;1040961;28;20018;-75
2020/12/12 01:44:21;;;;;;;11.57;4.45;;;14.80;53.00;;;;;;1038153;28;20045;-75
2020/12/12 01:44:56;;;;;;;14.10;4.45;;;14.80;53.20;;;;;;1037306;28;20432;-75
2020/12/12 01:45:28;;;;;;;12.70;4.03;;;14.80;53.30;;;;;;1036896;28;20022;-75
2020/12/12 01:45:59;;;;;;;15.10;4.85;;;14.80;53.20;;;;;;1038724;28;20128;-74
2020/12/12 01:46:32;;;;;;;12.20;4.55;;;14.80;53.00;;;;;;1040344;28;20026;-74
2020/12/12 01:47:06;;;;;;;13.13;4.70;;;14.80;53.10;;;;;;1040305;28;20026;-74
2020/12/12 01:47:39;;;;;;;12.18;4.40;;;14.90;52.80;;;;;;1035523;28;20022;-75
2020/12/12 01:48:10;;;;;;;13.13;4.95;;;14.90;52.80;;;;;;1034188;28;20109;-75
2020/12/12 01:48:42;;;;;;;12.93;4.53;;;14.90;52.90;;;;;;1033866;28;20014;-75
2020/12/12 01:49:14;;;;;;;18.08;4.90;;;14.90;53.00;;;;;;1036436;28;20018;-75
2020/12/12 01:49:45;;;;;;;16.10;4.70;;;14.90;52.80;;;;;;1035604;28;20408;-76
2020/12/12 01:50:17;;;;;;;12.45;4.13;;;14.90;52.60;;;;;;1038940;28;20410;-75
2020/12/12 01:50:49;;;;;;;16.60;4.55;;;14.90;52.40;;;;;;1042785;28;20014;-75
2020/12/12 01:51:21;;;;;;;11.38;4.40;;;14.90;52.20;;;;;;1038668;28;20022;-75
2020/12/12 01:51:53;;;;;;;11.52;4.18;;;14.80;52.40;;;;;;1040118;28;20026;-75
2020/12/12 01:52:26;;;;;;;14.63;4.35;;;14.80;52.40;;;;;;1038086;28;20116;-75
2020/12/12 01:52:58;;;;;;;13.15;4.10;;;14.80;52.30;;;;;;1038676;28;20025;-75
2020/12/12 01:53:29;;;;;;;12.85;4.30;;;14.80;52.20;;;;;;1036147;28;20022;-75
2020/12/12 01:54:01;;;;;;;14.80;4.22;;;14.80;52.30;;;;;;1034731;28;20018;-75
2020/12/12 01:54:33;;;;;;;12.38;4.22;;;14.80;52.30;;;;;;1036464;28;20128;-75
2020/12/12 01:55:04;;;;;;;13.55;4.88;;;14.80;52.30;;;;;;1036950;28;20460;-75
2020/12/12 01:55:36;;;;;;;13.85;4.20;;;14.70;52.30;;;;;;1041428;28;20026;-75
2020/12/12 01:56:08;;;;;;;13.65;4.40;;;14.80;52.30;;;;;;1041398;28;20017;-75
2020/12/12 01:56:39;;;;;;;14.68;4.60;;;14.70;52.30;;;;;;1038647;28;20057;-75
2020/12/12 01:57:12;;;;;;;16.58;5.00;;;14.70;52.40;;;;;;1042182;28;20017;-75
2020/12/12 01:57:46;;;;;;;13.30;4.40;;;14.70;52.50;;;;;;1038009;28;20018;-76
2020/12/12 01:58:18;;;;;;;13.48;4.38;;;14.70;52.30;;;;;;1039209;28;20086;-75
2020/12/12 01:58:50;;;;;;;12.90;4.63;;;14.70;52.20;;;;;;1042016;28;20025;-75
2020/12/12 01:59:21;;;;;;;13.50;4.57;;;14.70;52.20;;;;;;1043174;28;20016;-74
2020/12/12 01:59:53;;;;;;;12.10;4.22;;;14.70;52.20;;;;;;1039856;28;20033;-75
2020/12/12 02:00:25;;;;;;;13.07;4.47;;;14.70;52.30;;;;;;1038515;28;20021;-75
2020/12/12 02:00:57;;;;;;;10.15;4.07;;;14.70;52.40;;;;;;1039054;28;20032;-75
2020/12/12 02:01:33;;;;;;;13.32;4.65;;;14.70;52.50;;;;;;1039871;28;20056;-75
2020/12/12 02:02:07;;;;;;;12.02;4.45;;;14.70;52.50;;;;;;1041425;28;20104;-75
2020/12/12 02:02:41;;;;;;;14.40;4.80;;;14.70;52.50;;;;;;1040190;28;20044;-75
2020/12/12 02:03:13;;;;;;;11.65;4.07;;;14.70;52.40;;;;;;1038128;28;20440;-75
2020/12/12 02:03:45;;;;;;;15.02;4.70;;;14.70;52.40;;;;;;1037793;28;20545;-75
2020/12/12 02:04:18;;;;;;;11.38;4.00;;;14.60;52.20;;;;;;1035064;28;20117;-75
2020/12/12 02:04:53;;;;;;;14.43;4.88;;;14.70;52.20;;;;;;1037988;28;20022;-75
2020/12/12 02:06:30;;;;;;;11.30;4.40;;;14.70;52.80;;;;;;1023397;29;20093;-75
2020/12/12 02:07:02;;;;;;;12.65;4.05;;;14.70;53.50;;;;;;1023126;29;20016;-75
2020/12/12 02:07:34;;;;;;;14.25;4.38;;;14.70;52.70;;;;;;1030917;28;20035;-74
2020/12/12 02:08:18;;;;;;;17.17;4.20;;;14.60;52.50;;;;;;1041422;28;20028;-74
2020/12/12 02:08:52;;;;;;;15.02;4.20;;;14.60;52.60;;;;;;1042202;28;20148;-74
2020/12/12 02:09:23;;;;;;;11.13;4.05;;;14.50;52.70;;;;;;1042258;28;20060;-76
2020/12/12 02:09:55;;;;;;;11.60;3.75;;;14.50;52.70;;;;;;1041029;28;20520;-75
2020/12/12 02:10:27;;;;;;;16.00;4.10;;;14.50;52.90;;;;;;1039296;28;20025;-76
2020/12/12 02:11:02;;;;;;;12.85;4.00;;;14.50;52.90;;;;;;1041869;28;20024;-76
2020/12/12 02:11:36;;;;;;;14.45;4.68;;;14.50;52.90;;;;;;1040561;28;20049;-76
2020/12/12 02:12:07;;;;;;;11.77;4.13;;;14.40;53.10;;;;;;1043341;28;20399;-76
2020/12/12 02:12:39;;;;;;;12.80;4.25;;;14.40;53.30;;;;;;1044735;28;20061;-75
2020/12/12 02:13:12;;;;;;;11.25;4.07;;;14.40;53.30;;;;;;1040773;28;20096;-75
2020/12/12 02:13:47;;;;;;;9.55;3.85;;;14.40;53.30;;;;;;1043778;28;20021;-75
2020/12/12 02:14:18;;;;;;;10.43;3.90;;;14.40;53.50;;;;;;1040656;28;20005;-74
2020/12/12 02:14:50;;;;;;;12.73;4.00;;;14.40;53.70;;;;;;1041604;28;20088;-74
2020/12/12 02:15:21;;;;;;;9.68;3.88;;;14.40;53.60;;;;;;1045039;28;20013;-74
2020/12/12 02:15:52;;;;;;;14.07;3.92;;;14.50;53.70;;;;;;1045411;28;20014;-74
2020/12/12 02:16:25;;;;;;;11.45;4.03;;;14.50;53.60;;;;;;1038417;28;20060;-74
2020/12/12 02:16:59;;;;;;;13.35;4.15;;;14.50;53.50;;;;;;1037401;28;20080;-74
2020/12/12 02:17:31;;;;;;;11.38;4.22;;;14.50;53.40;;;;;;1036692;28;20018;-74
2020/12/12 02:18:05;;;;;;;13.63;4.28;;;14.50;53.40;;;;;;1034259;28;20502;-74
2020/12/12 02:18:38;;;;;;;11.07;3.97;;;14.50;53.40;;;;;;1034735;28;20052;-75
2020/12/12 02:19:15;;;;;;;12.55;4.10;;;14.50;53.40;;;;;;1037888;28;20018;-75
2020/12/12 02:19:46;;;;;;;11.10;4.13;;;14.50;53.40;;;;;;1040135;28;20113;-75
2020/12/12 02:20:17;;;;;;;12.93;4.28;;;14.50;53.40;;;;;;1043417;28;20010;-75
2020/12/12 02:20:55;;;;;;;12.63;3.85;;;14.60;53.60;;;;;;1038573;28;20418;-75
2020/12/12 02:21:27;;;;;;;11.82;4.15;;;14.50;53.70;;;;;;1036168;28;20439;-75
2020/12/12 02:22:03;;;;;;;12.70;4.30;;;14.60;53.60;;;;;;1040036;28;20128;-74
2020/12/12 02:22:35;;;;;;;11.20;4.20;;;14.60;53.60;;;;;;1040626;28;20026;-74
2020/12/12 02:23:06;;;;;;;14.88;4.60;;;14.60;53.80;;;;;;1041327;28;19998;-74
2020/12/12 02:23:38;;;;;;;11.90;4.22;;;14.60;54.00;;;;;;1039999;28;20057;-74
2020/12/12 02:24:09;;;;;;;10.02;4.25;;;14.60;53.90;;;;;;1035144;28;20459;-74
2020/12/12 02:24:40;;;;;;;12.00;4.22;;;14.70;53.80;;;;;;1031755;28;20033;-74
2020/12/12 02:25:12;;;;;;;9.60;4.10;;;14.70;53.70;;;;;;1040859;28;20013;-74
2020/12/12 02:25:43;;;;;;;11.35;4.35;;;14.70;53.70;;;;;;1035712;28;20025;-74
2020/12/12 02:26:15;;;;;;;14.52;4.32;;;14.70;53.60;;;;;;1035461;28;20029;-74
2020/12/12 02:26:47;;;;;;;10.18;3.80;;;14.70;53.50;;;;;;1040563;28;20041;-74
2020/12/12 02:27:21;;;;;;;11.63;4.40;;;14.80;53.50;;;;;;1039081;28;20087;-74
2020/12/12 02:27:56;;;;;;;10.77;4.07;;;14.80;53.70;;;;;;1038380;28;20018;-74
2020/12/12 02:28:52;;;;;;;11.40;4.00;;;14.80;54.00;;;;;;1038764;28;20462;-73
2020/12/12 02:29:19;;;;;;;11.27;3.95;;;14.80;53.90;;;;;;1038169;28;20072;-76
2020/12/12 02:29:52;;;;;;;11.32;3.92;;;14.80;53.70;;;;;;1038726;28;20379;-72
2020/12/12 02:30:24;;;;;;;12.77;4.22;;;14.80;53.50;;;;;;1040780;28;20014;-72
2020/12/12 02:30:55;;;;;;;12.77;4.10;;;14.80;53.50;;;;;;1040532;28;20021;-73
2020/12/12 02:31:27;;;;;;;11.80;4.18;;;14.80;53.50;;;;;;1041302;28;20033;-73
2020/12/12 02:31:58;;;;;;;12.55;4.10;;;14.80;53.60;;;;;;1040587;28;20493;-73
2020/12/12 02:32:30;;;;;;;13.30;4.30;;;14.90;54.20;;;;;;1040620;28;20466;-72
2020/12/12 02:33:01;;;;;;;14.30;4.43;;;14.90;54.40;;;;;;1043994;28;20370;-72
2020/12/12 02:33:33;;;;;;;14.50;4.30;;;14.90;54.30;;;;;;1044024;28;20024;-72
2020/12/12 02:34:05;;;;;;;15.38;4.50;;;14.90;54.10;;;;;;1038660;28;20164;-72
2020/12/12 02:34:37;;;;;;;12.48;4.05;;;14.90;54.00;;;;;;1035453;28;20030;-73
2020/12/12 02:35:08;;;;;;;14.18;4.47;;;14.90;54.00;;;;;;1030636;28;20134;-73
2020/12/12 02:35:39;;;;;;;14.05;4.22;;;14.90;53.90;;;;;;1033191;28;20011;-73
2020/12/12 02:36:11;;;;;;;12.63;4.30;;;14.90;53.80;;;;;;1035895;28;20030;-73
2020/12/12 02:36:43;;;;;;;10.27;4.13;;;14.90;53.80;;;;;;1036481;28;20029;-72
2020/12/12 02:37:14;;;;;;;12.27;4.35;;;14.90;53.80;;;;;;1036677;28;20052;-73
2020/12/12 02:37:46;;;;;;;11.48;4.18;;;14.90;53.70;;;;;;1039424;28;20112;-72
2020/12/12 02:38:17;;;;;;;11.93;4.40;;;14.90;53.80;;;;;;1036894;28;20021;-73
2020/12/12 02:38:49;;;;;;;14.50;4.50;;;14.90;53.90;;;;;;1039283;28;20026;-73
2020/12/12 02:39:20;;;;;;;11.65;4.68;;;15.00;54.40;;;;;;1040297;28;20013;-73
2020/12/12 02:39:51;;;;;;;11.82;4.47;;;15.00;54.30;;;;;;1039039;28;20056;-73
2020/12/12 02:40:23;;;;;;;12.18;4.88;;;15.00;54.10;;;;;;1044883;28;20017;-73
2020/12/12 02:40:54;;;;;;;13.57;4.68;;;15.00;53.70;;;;;;1037670;28;20049;-73
2020/12/12 02:41:25;;;;;;;13.27;4.90;;;15.00;53.60;;;;;;1038379;28;20083;-74
2020/12/12 02:41:57;;;;;;;13.50;5.50;;;15.00;53.50;;;;;;1035945;28;20165;-75
2020/12/12 02:42:28;;;;;;;13.35;5.20;;;15.00;53.50;;;;;;1036260;28;20440;-75
2020/12/12 02:43:00;;;;;;;13.90;5.60;;;15.00;53.60;;;;;;1034762;28;20022;-75
2020/12/12 02:43:31;;;;;;;15.85;5.82;;;15.00;53.60;;;;;;1035527;28;20033;-75
2020/12/12 02:44:03;;;;;;;12.60;5.30;;;15.00;53.50;;;;;;1040097;28;20383;-75
2020/12/12 02:44:34;;;;;;;15.20;5.22;;;15.00;53.40;;;;;;1032879;28;20014;-74
2020/12/12 02:45:05;;;;;;;13.98;5.55;;;15.00;53.50;;;;;;1032814;28;20046;-75
2020/12/12 02:45:37;;;;;;;12.30;6.00;;;15.00;53.70;;;;;;1034342;28;20018;-73